Terminal Aerodrome Forecast
Issued by NWS Houston/Galveston TX

Home | Current Version | Previous Version | Text Only | Print | Product List | Glossary On
Versions: 1 2 3 4 5 6 7 8 9 10 11 12 13 14 15 16 17 18 19 20 21 22 23 24 25 26 27 28 29 30 31 32 33 34 35 36 37 38 39 40 41 42 43 44 45 46 47 48 49 50
000
FTUS44 KHGX 020520
TAFHOU
TAF
KHOU 020520Z 0206/0306 16006KT P6SM FEW013 BKN070
     FM020700 16006KT P6SM SCT008 OVC012
     FM020900 17006KT P6SM BKN008 OVC012
     FM021500 19011KT P6SM BKN015 BKN025
     FM021800 18013G23KT P6SM SCT015 SCT030
     FM022100 16012KT P6SM FEW050
     FM030400 16008KT P6SM OVC012=

USA.gov is the U.S. government's official web portal to all federal, state and local government web resources and services.